Hlavní strana
METAR-TAF:

METAR-TAF

Letiště :

Letiště Drážďany

Drážďany, Německo

zeměpisná šířka: 51-08N, zeměpisná délka: 013-45E, výška: 230 m

Aktuální stav počasí

Zpráva byla vytvořena před 15 minutami, v 07:50 UTC
vítr z různých směrů 3 kt
Teplota 22°C
Vlhkost vzduchu 53%
Tlak 1022 hPa
Viditelnost 10 km a více
Skoro jasno ve výšce 4200 ft

METAR: EDDC 260750Z VRB03KT 9999 FEW042 22/12 Q1022 NOSIG

Čas: 10:05 (08:05 UTC)

Předpověď počasí

Zpráva byla vytvořena před 3 hodinami a 5 minutami, v 05:00 UTC
Předpověď platná od 26 v 06 UTC do 27 v 06 UTC
Východní vítr 4 kt
Viditelnost 10 km a více
Žádná oblačnost pod 1500 m, nevyskytují se cumulonimby.

TAF: EDDC 260500Z 2606/2706 09004KT CAVOK

Stav a předpovědi počasí z více než 4 000 letišť (zprávy METAR a TAF).

Červené a žluté tečky na mapě představují dostupné meteorologické stanice.

Když kurzor umístíte na tečku, zobrazí se název stanice.

Pak kliknutím zobrazíte stav a předpověď počasí.

Chcete-li změnit mapu, kliknutím na zelené tlačítko se znaménkem +mapu přiblížíte, kliknutím na zelené tlačítko se znaménkem – mapu oddálíte a kliknutím na zelené šipky přejdete na sousední mapy.


METAR-TAF: